Time;durP1;ratioP1;P1;durP2;ratioP2;P2;SDS_P1;SDS_P2;PMS_P1;PMS_P2;Temp;Humidity;BMP_temperature;BMP_pressure;BME280_temperature;BME280_humidity;BME280_pressure;Samples;Min_cycle;Max_cycle;Signal;HPM_P1;HPM_P2
2022/02/08 00:01:34;;;;;;;5.53;2.35;;;;;;;-1.15;75.80;93282.66;5065366;28;20074;-87
2022/02/08 00:04:00;;;;;;;2.47;1.88;;;;;;;-1.18;75.14;93279.75;5064293;28;20017;-86
2022/02/08 00:08:53;;;;;;;6.40;2.67;;;;;;;-1.12;75.39;93278.75;5065615;28;20207;-87
2022/02/08 00:11:18;;;;;;;4.70;2.50;;;;;;;-1.13;75.08;93275.34;5065297;28;20040;-87
2022/02/08 00:13:46;;;;;;;5.78;2.42;;;;;;;-1.18;74.63;93279.75;5063949;28;20025;-87
2022/02/08 00:16:12;;;;;;;4.55;2.67;;;;;;;-1.22;75.65;93263.81;5065583;28;20099;-87
2022/02/08 00:18:38;;;;;;;4.35;2.55;;;;;;;-1.21;75.75;93270.59;5065246;28;20025;-88
2022/02/08 00:21:03;;;;;;;3.63;2.20;;;;;;;-1.19;75.03;93262.50;5065621;28;20060;-87
2022/02/08 00:23:28;;;;;;;3.38;2.28;;;;;;;-1.24;75.35;93269.28;5065454;28;20306;-87
2022/02/08 00:25:54;;;;;;;3.53;2.05;;;;;;;-1.25;75.73;93256.47;5064055;28;20017;-86
2022/02/08 00:28:19;;;;;;;3.63;2.20;;;;;;;-1.26;74.64;93275.81;5065095;28;20041;-84
2022/02/08 00:30:45;;;;;;;4.28;2.80;;;;;;;-1.25;74.49;93285.22;5065405;28;20374;-85
2022/02/08 00:33:10;;;;;;;7.00;2.65;;;;;;;-1.19;74.79;93283.44;5065239;28;20067;-87
2022/02/08 00:35:36;;;;;;;4.80;2.65;;;;;;;-1.24;74.99;93284.97;5064860;28;20047;-87
2022/02/08 00:38:01;;;;;;;7.18;2.63;;;;;;;-1.26;74.58;93279.22;5064856;28;20029;-85
2022/02/08 00:40:27;;;;;;;5.95;2.70;;;;;;;-1.24;73.83;93290.22;5065064;28;20021;-86
2022/02/08 00:42:53;;;;;;;5.15;2.20;;;;;;;-1.28;74.41;93278.69;5065038;28;20425;-85
2022/02/08 00:47:54;;;;;;;5.15;2.20;;;;;;;-1.31;74.77;93281.00;5064884;28;20239;-87
2022/02/08 00:50:23;;;;;;;4.57;1.92;;;;;;;-1.36;74.55;93281.78;5064494;28;20341;-84
2022/02/08 00:52:48;;;;;;;8.23;2.30;;;;;;;-1.31;74.39;93296.69;5064682;28;20112;-84
2022/02/08 00:55:14;;;;;;;3.92;2.08;;;;;;;-1.32;74.43;93301.16;5064646;28;20022;-84
2022/02/08 00:57:39;;;;;;;12.02;1.60;;;;;;;-1.30;73.31;93303.50;5064480;28;20219;-84
2022/02/08 01:00:08;;;;;;;6.70;2.22;;;;;;;-1.37;73.53;93282.03;5064180;28;20092;-87
2022/02/08 01:02:34;;;;;;;4.60;2.38;;;;;;;-1.34;73.34;93298.00;5064499;28;20052;-87
2022/02/08 01:05:03;;;;;;;4.68;2.15;;;;;;;-1.34;73.45;93294.56;5064442;28;20025;-87
2022/02/08 01:07:28;;;;;;;5.25;2.20;;;;;;;-1.36;73.87;93291.41;5063161;28;20025;-86
2022/02/08 01:09:59;;;;;;;3.28;1.67;;;;;;;-1.40;74.42;93296.38;5064484;28;20031;-86
2022/02/08 01:12:26;;;;;;;3.73;2.03;;;;;;;-1.41;73.59;93298.19;5064317;28;20041;-87
2022/02/08 01:14:54;;;;;;;5.38;2.47;;;;;;;-1.37;74.71;93308.16;5064147;28;20620;-87
2022/02/08 01:17:21;;;;;;;3.75;2.35;;;;;;;-1.41;74.58;93303.44;5064035;28;20029;-88
2022/02/08 01:19:53;;;;;;;2.95;1.70;;;;;;;-1.39;73.59;93297.94;5064366;28;20035;-84
2022/02/08 01:22:19;;;;;;;5.18;2.15;;;;;;;-1.43;73.05;93289.81;5063156;28;20077;-84
2022/02/08 01:24:46;;;;;;;5.18;2.10;;;;;;;-1.42;73.49;93301.09;5063810;28;20072;-87
2022/02/08 01:27:13;;;;;;;3.17;1.88;;;;;;;-1.44;73.20;93306.56;5064042;28;20346;-86
2022/02/08 01:32:30;;;;;;;3.95;2.15;;;;;;;-1.47;72.67;93309.66;5064219;28;20215;-86
2022/02/08 01:48:03;;;;;;;5.05;2.85;;;;;;;-1.57;72.19;93325.28;5063841;28;20173;-86
2022/02/08 01:50:29;;;;;;;4.32;2.58;;;;;;;-1.53;72.86;93315.88;5062447;28;20028;-86
2022/02/08 01:52:55;;;;;;;3.45;2.28;;;;;;;-1.59;72.64;93309.06;5062372;28;20318;-86
2022/02/08 01:55:21;;;;;;;3.97;2.42;;;;;;;-1.56;72.25;93326.09;5063847;28;20013;-86
2022/02/08 01:57:47;;;;;;;6.18;2.10;;;;;;;-1.57;72.34;93332.34;5063526;28;20028;-85
2022/02/08 02:00:15;;;;;;;7.90;3.13;;;;;;;-1.62;72.69;93335.69;5062168;28;20096;-86
2022/02/08 02:02:43;;;;;;;7.25;2.60;;;;;;;-1.59;73.64;93343.03;5062125;28;20419;-86
2022/02/08 02:05:09;;;;;;;4.85;2.53;;;;;;;-1.67;73.04;93333.03;5063208;28;20029;-86
2022/02/08 02:07:36;;;;;;;6.35;3.17;;;;;;;-1.61;72.42;93337.25;5063209;28;20032;-86
2022/02/08 02:10:05;;;;;;;6.47;2.00;;;;;;;-1.65;72.73;93337.00;5063298;28;20032;-86
2022/02/08 02:12:30;;;;;;;4.50;2.42;;;;;;;-1.65;73.09;93339.59;5063089;28;20075;-83
2022/02/08 02:14:59;;;;;;;7.20;2.88;;;;;;;-1.67;72.75;93320.78;5062945;28;20029;-84
2022/02/08 02:17:25;;;;;;;4.60;2.75;;;;;;;-1.69;72.66;93348.19;5062603;28;20028;-83
2022/02/08 02:19:51;;;;;;;3.88;1.92;;;;;;;-1.67;72.71;93340.88;5062914;28;20028;-83
2022/02/08 02:22:17;;;;;;;5.38;2.90;;;;;;;-1.66;72.90;93338.03;5063021;28;20219;-83
2022/02/08 02:24:42;;;;;;;5.55;3.15;;;;;;;-1.67;72.99;93359.97;5062789;28;20035;-83
2022/02/08 02:27:10;;;;;;;5.03;3.22;;;;;;;-1.62;73.25;93346.16;5062470;28;20020;-83
2022/02/08 02:29:36;;;;;;;3.20;2.30;;;;;;;-1.66;72.54;93355.53;5062832;28;20166;-83
2022/02/08 02:32:02;;;;;;;4.65;2.55;;;;;;;-1.63;73.20;93360.25;5063043;28;20345;-87
2022/02/08 02:34:27;;;;;;;5.75;2.83;;;;;;;-1.63;72.67;93365.47;5062897;28;20024;-85
2022/02/08 02:36:54;;;;;;;5.47;2.72;;;;;;;-1.66;73.13;93373.81;5062929;28;20020;-84
2022/02/08 02:39:25;;;;;;;6.68;2.60;;;;;;;-1.63;72.10;93381.16;5062523;28;20087;-84
2022/02/08 02:41:52;;;;;;;5.63;2.67;;;;;;;-1.67;72.13;93382.69;5061352;28;20082;-84
2022/02/08 02:44:21;;;;;;;5.30;2.63;;;;;;;-1.65;72.60;93389.25;5062628;28;20058;-84
2022/02/08 02:46:47;;;;;;;5.40;2.83;;;;;;;-1.65;72.20;93394.50;5062304;28;20036;-83
2022/02/08 02:49:13;;;;;;;5.68;2.78;;;;;;;-1.64;72.37;93388.22;5062062;28;20012;-84
2022/02/08 02:51:41;;;;;;;5.20;2.80;;;;;;;-1.65;72.33;93391.88;5062104;28;20035;-84
2022/02/08 02:54:19;;;;;;;5.32;3.45;;;;;;;-1.62;73.44;93406.25;5060950;28;20043;-84
2022/02/08 02:56:47;;;;;;;5.18;2.90;;;;;;;-1.64;73.53;93411.72;5062281;28;20028;-81
2022/02/08 02:59:13;;;;;;;5.25;3.05;;;;;;;-1.63;72.34;93418.53;5061922;28;20024;-81
2022/02/08 03:02:21;;;;;;;5.75;3.78;;;;;;;-1.60;72.17;93408.63;5061920;28;20017;-84
2022/02/08 03:05:01;;;;;;;6.80;2.90;;;;;;;-1.64;72.38;93411.72;5061872;28;20215;-84
2022/02/08 03:18:37;;;;;;;9.05;2.85;;;;;;;-1.64;72.63;93403.09;5061811;28;20357;-81
2022/02/08 03:21:04;;;;;;;5.35;2.58;;;;;;;-1.62;71.83;93408.88;5061920;28;20039;-84
2022/02/08 03:23:30;;;;;;;4.70;2.97;;;;;;;-1.61;71.16;93415.66;5061831;28;20062;-84
2022/02/08 03:25:55;;;;;;;7.43;3.22;;;;;;;-1.63;72.48;93420.34;5061738;28;20117;-84
2022/02/08 03:28:21;;;;;;;4.93;2.70;;;;;;;-1.58;72.31;93430.88;5061993;28;20017;-84
2022/02/08 03:30:47;;;;;;;5.03;2.67;;;;;;;-1.63;71.90;93433.41;5061755;28;20122;-84
2022/02/08 03:33:12;;;;;;;3.85;2.35;;;;;;;-1.59;71.76;93439.72;5061712;28;20113;-84
2022/02/08 03:35:38;;;;;;;4.15;2.58;;;;;;;-1.61;71.63;93447.03;5061507;28;20092;-84
2022/02/08 03:38:06;;;;;;;4.28;2.70;;;;;;;-1.59;72.01;93423.25;5061647;28;20092;-85
2022/02/08 03:43:13;;;;;;;4.03;2.65;;;;;;;-1.56;71.40;93428.00;5061828;28;20032;-84
2022/02/08 03:45:44;;;;;;;4.13;2.42;;;;;;;-1.64;71.28;93432.63;5061656;28;20025;-84
2022/02/08 03:48:15;;;;;;;9.82;2.97;;;;;;;-1.62;71.73;93437.63;5060568;28;20250;-85
2022/02/08 03:50:40;;;;;;;6.53;2.85;;;;;;;-1.65;71.53;93443.34;5061658;28;20024;-85
2022/02/08 03:53:06;;;;;;;5.60;2.70;;;;;;;-1.67;71.73;93432.34;5064104;28;20092;-85
2022/02/08 03:55:31;;;;;;;4.03;2.50;;;;;;;-1.66;71.60;93433.94;5065207;28;20309;-84
2022/02/08 03:57:57;;;;;;;5.28;2.88;;;;;;;-1.62;71.97;93448.06;5065139;28;20028;-84
2022/02/08 04:00:24;;;;;;;4.93;2.58;;;;;;;-1.62;71.77;93451.47;5063992;28;20049;-84
2022/02/08 04:02:54;;;;;;;5.80;2.97;;;;;;;-1.68;71.20;93457.69;5065378;28;20066;-88
2022/02/08 04:05:55;;;;;;;11.60;2.97;;;;;;;-1.70;71.34;93445.91;5064054;28;20279;-87
2022/02/08 04:08:14;;;;;;;5.97;3.20;;;;;;;-1.69;71.09;93435.22;5065685;28;20033;-86
2022/02/08 04:10:42;;;;;;;3.70;2.42;;;;;;;-1.74;71.13;93448.22;5065222;28;20500;-86
2022/02/08 04:13:16;;;;;;;5.65;2.50;;;;;;;-1.75;70.78;93454.50;5063480;28;20068;-86
2022/02/08 04:34:55;;;;;;;3.67;2.17;;;;;;;-1.68;69.55;93498.72;5064580;28;20203;-86
2022/02/08 04:40:34;;;;;;;7.30;3.05;;;;;;;-1.68;70.33;93499.50;5064693;28;20143;-85
2022/02/08 04:50:20;;;;;;;5.72;2.47;;;;;;;-1.71;69.57;93514.88;5064785;28;20027;-86
2022/02/08 04:52:49;;;;;;;3.30;2.42;;;;;;;-1.73;68.96;93522.16;5064480;28;20044;-86
2022/02/08 04:58:45;;;;;;;4.47;2.60;;;;;;;-1.80;69.49;93532.03;5064518;28;20024;-84
2022/02/08 05:01:02;;;;;;;7.18;2.47;;;;;;;-1.83;68.50;93539.31;5063763;28;20334;-85
2022/02/08 05:36:34;;;;;;;5.15;2.50;;;;;;;-1.97;68.65;93559.00;5063543;28;20321;-86
2022/02/08 05:44:37;;;;;;;5.30;2.03;;;;;;;-2.03;68.09;93579.03;5041875;28;20341;-86
2022/02/08 05:47:03;;;;;;;4.00;2.20;;;;;;;-1.99;67.33;93602.03;5045780;28;20029;-86
2022/02/08 05:49:40;;;;;;;4.78;2.50;;;;;;;-1.97;68.24;93606.00;5062474;28;20341;-86
2022/02/08 05:52:44;;;;;;;4.18;2.47;;;;;;;-2.03;67.71;93612.19;5063201;28;20376;-85
2022/02/08 05:54:54;;;;;;;7.15;2.78;;;;;;;-1.93;68.24;93625.41;5062869;28;20029;-85
2022/02/08 05:57:20;;;;;;;4.38;2.30;;;;;;;-1.94;68.26;93623.03;5061903;28;20043;-85
2022/02/08 05:59:46;;;;;;;8.98;2.95;;;;;;;-1.93;68.27;93633.25;5062140;28;20090;-85
2022/02/08 06:02:11;;;;;;;3.97;2.08;;;;;;;-1.93;67.67;93648.91;5063024;28;20055;-85
2022/02/08 06:04:38;;;;;;;5.78;2.40;;;;;;;-1.94;67.13;93649.16;5062976;28;20049;-85
2022/02/08 06:07:05;;;;;;;8.65;2.70;;;;;;;-1.94;67.93;93663.00;5062832;28;20115;-85
2022/02/08 06:09:31;;;;;;;5.00;2.70;;;;;;;-1.89;67.28;93668.28;5063106;28;20086;-85
2022/02/08 06:11:56;;;;;;;3.20;1.77;;;;;;;-1.91;66.87;93672.97;5063057;28;20239;-85
2022/02/08 06:14:25;;;;;;;7.22;2.55;;;;;;;-1.86;66.42;93683.47;5062728;28;20021;-85
2022/02/08 06:16:52;;;;;;;5.38;2.17;;;;;;;-1.87;66.84;93681.91;5062839;28;20021;-84
2022/02/08 06:19:18;;;;;;;3.90;1.90;;;;;;;-1.87;67.28;93681.91;5062737;28;20044;-84
2022/02/08 06:21:46;;;;;;;3.55;2.38;;;;;;;-1.83;67.07;93693.47;5062819;28;20017;-83
2022/02/08 06:24:13;;;;;;;3.85;2.15;;;;;;;-1.87;65.86;93679.28;5062755;28;20196;-83
2022/02/08 06:26:38;;;;;;;4.32;2.22;;;;;;;-1.82;66.70;93691.63;5062473;28;20017;-84
2022/02/08 06:29:18;;;;;;;4.07;1.80;;;;;;;-1.82;66.57;93702.09;5062263;28;20072;-84
2022/02/08 06:31:44;;;;;;;5.70;2.83;;;;;;;-1.76;66.01;93705.56;5062657;28;20045;-83
2022/02/08 06:34:12;;;;;;;3.03;1.67;;;;;;;-1.72;66.08;93701.44;5062583;28;20036;-84
2022/02/08 06:36:38;;;;;;;4.53;2.13;;;;;;;-1.76;66.25;93713.41;5062583;28;20048;-84
2022/02/08 06:39:03;;;;;;;6.22;2.60;;;;;;;-1.69;66.48;93714.00;5062265;28;20047;-84
2022/02/08 06:41:29;;;;;;;5.00;2.00;;;;;;;-1.73;66.31;93711.13;5062334;28;20028;-83
2022/02/08 06:43:57;;;;;;;5.53;2.30;;;;;;;-1.64;66.55;93735.00;5062595;28;20311;-83
2022/02/08 06:46:22;;;;;;;4.15;2.47;;;;;;;-1.63;66.68;93726.13;5062487;28;20047;-83
2022/02/08 06:48:48;;;;;;;3.85;1.80;;;;;;;-1.65;65.44;93743.88;5062428;28;20422;-83
2022/02/08 06:51:13;;;;;;;4.45;2.20;;;;;;;-1.60;65.88;93746.56;5062558;28;20024;-82
2022/02/08 06:53:39;;;;;;;2.55;1.38;;;;;;;-1.72;65.98;93748.47;5062131;28;20123;-83
2022/02/08 06:56:05;;;;;;;5.80;2.00;;;;;;;-1.73;65.87;93754.72;5063426;28;20071;-86
2022/02/08 06:58:47;;;;;;;3.80;1.85;;;;;;;-1.67;66.35;93765.03;5062658;28;20319;-86
2022/02/08 07:01:13;;;;;;;5.68;2.15;;;;;;;-1.66;65.95;93774.44;5062508;28;20135;-87
2022/02/08 07:03:38;;;;;;;4.88;2.13;;;;;;;-1.71;65.83;93784.84;5062106;28;20250;-86
2022/02/08 07:06:06;;;;;;;3.35;2.03;;;;;;;-1.59;66.84;93783.94;5062294;28;20029;-85
2022/02/08 07:08:31;;;;;;;7.25;2.55;;;;;;;-1.57;66.20;93784.50;5062180;28;20193;-84
2022/02/08 07:10:59;;;;;;;2.20;1.38;;;;;;;-1.65;65.56;93798.75;5062188;28;20032;-86
2022/02/08 07:13:25;;;;;;;7.60;2.60;;;;;;;-1.57;65.95;93805.41;5061263;28;20047;-83
2022/02/08 07:15:50;;;;;;;5.75;2.10;;;;;;;-1.59;65.89;93797.78;5062305;28;20025;-88
2022/02/08 07:18:16;;;;;;;6.38;2.85;;;;;;;-1.52;66.07;93811.50;5062508;28;20028;-87
2022/02/08 07:20:41;;;;;;;6.03;2.40;;;;;;;-1.51;67.04;93802.63;5061982;28;20040;-87
2022/02/08 07:23:07;;;;;;;3.65;1.98;;;;;;;-1.52;65.62;93808.88;5062820;28;20025;-87
2022/02/08 07:25:32;;;;;;;4.47;2.60;;;;;;;-1.49;66.23;93816.25;5062666;28;20025;-86
2022/02/08 07:27:58;;;;;;;3.53;2.28;;;;;;;-1.49;66.42;93818.84;5065540;28;20087;-84
2022/02/08 07:30:23;;;;;;;5.00;2.42;;;;;;;-1.43;66.14;93806.66;5066362;28;20039;-83
2022/02/08 07:32:52;;;;;;;6.03;2.78;;;;;;;-1.37;66.37;93808.31;5066277;28;20350;-85
2022/02/08 07:35:43;;;;;;;10.30;3.65;;;;;;;-1.43;66.06;93812.66;5065813;28;20021;-88
2022/02/08 07:38:20;;;;;;;4.07;2.50;;;;;;;-1.42;65.97;93816.09;5065751;28;20052;-82
2022/02/08 07:43:17;;;;;;;8.05;3.10;;;;;;;-1.45;66.42;93830.41;5065944;28;20031;-86
2022/02/08 07:45:42;;;;;;;6.82;3.08;;;;;;;-1.43;65.54;93830.97;5064452;28;20115;-86
2022/02/08 07:48:08;;;;;;;5.88;2.67;;;;;;;-1.37;66.26;93829.22;5065574;28;20044;-85
2022/02/08 07:50:39;;;;;;;6.47;2.95;;;;;;;-1.34;66.07;93833.19;5064591;28;20337;-88
2022/02/08 07:53:08;;;;;;;7.50;3.20;;;;;;;-1.27;65.27;93841.66;5068201;28;20031;-87
2022/02/08 07:55:34;;;;;;;5.00;2.90;;;;;;;-1.26;65.10;93845.88;5066271;28;20051;-90
2022/02/08 07:58:02;;;;;;;10.32;3.40;;;;;;;-1.26;65.13;93841.44;5065468;28;20025;-88
2022/02/08 08:00:27;;;;;;;5.10;3.28;;;;;;;-1.26;65.06;93851.91;5063769;28;20080;-85
2022/02/08 08:02:53;;;;;;;5.32;2.80;;;;;;;-1.28;65.48;93861.81;5065411;28;20021;-83
2022/02/08 08:05:19;;;;;;;6.68;2.83;;;;;;;-1.24;64.75;93857.69;5065648;28;20017;-83
2022/02/08 08:07:45;;;;;;;7.13;2.72;;;;;;;-1.28;64.65;93868.88;5065342;28;20017;-82
2022/02/08 08:10:17;;;;;;;3.90;2.38;;;;;;;-1.24;64.10;93883.06;5065356;28;20040;-83
2022/02/08 08:12:52;;;;;;;4.95;2.47;;;;;;;-1.15;63.60;93884.22;5065569;28;20288;-84
2022/02/08 08:18:37;;;;;;;7.07;2.72;;;;;;;-1.18;63.83;93878.66;5064748;28;20037;-87
2022/02/08 08:21:03;;;;;;;5.70;2.92;;;;;;;-1.12;65.40;93896.00;5066011;28;20028;-84
2022/02/08 08:23:49;;;;;;;8.75;2.40;;;;;;;-1.04;64.19;93899.03;5066644;28;20314;-88
2022/02/08 08:26:15;;;;;;;7.88;2.47;;;;;;;-1.05;63.29;93907.91;5066216;28;20025;-87
2022/02/08 08:28:42;;;;;;;8.68;2.85;;;;;;;-0.94;63.95;93910.66;5065257;28;20020;-87
2022/02/08 08:31:08;;;;;;;6.45;2.25;;;;;;;-0.84;64.02;93916.06;5066005;28;20031;-88
2022/02/08 08:33:34;;;;;;;6.80;3.10;;;;;;;-0.80;63.15;93914.53;5065542;28;20025;-84
2022/02/08 08:35:59;;;;;;;5.70;2.92;;;;;;;-0.77;63.14;93919.31;5065619;28;20025;-90
2022/02/08 08:38:26;;;;;;;5.82;2.85;;;;;;;-0.79;61.77;93923.16;5064607;28;20028;-84
2022/02/08 08:43:43;;;;;;;11.35;2.50;;;;;;;-0.79;62.04;93923.97;5065590;28;20056;-84
2022/02/08 08:54:06;;;;;;;7.10;3.05;;;;;;;-0.57;63.33;93926.66;5065154;28;20032;-86
2022/02/08 08:56:32;;;;;;;8.07;2.58;;;;;;;-0.50;62.57;93923.84;5064975;28;20032;-87
2022/02/08 08:59:00;;;;;;;6.90;2.72;;;;;;;-0.52;62.35;93925.91;5064929;28;20323;-86
2022/02/08 09:01:25;;;;;;;5.80;2.53;;;;;;;-0.43;62.57;93927.88;5064753;28;20051;-87
2022/02/08 09:03:52;;;;;;;6.93;2.53;;;;;;;-0.43;61.50;93930.50;5065183;28;20322;-88
2022/02/08 09:06:17;;;;;;;4.80;2.03;;;;;;;-0.44;61.24;93931.50;5065043;28;20039;-87
2022/02/08 09:08:44;;;;;;;5.20;2.90;;;;;;;-0.53;60.74;93938.22;5064999;28;20252;-88
2022/02/08 09:11:36;;;;;;;9.18;3.15;;;;;;;-0.33;61.97;93950.75;5063598;28;20024;-87
2022/02/08 09:14:24;;;;;;;;;;;;;;;;;;;;;
2022/02/08 09:17:18;;;;;;;7.53;2.53;;;;;;;-0.29;61.50;93953.69;5064282;28;20060;-86
2022/02/08 09:30:05;;;;;;;4.28;1.88;;;;;;;-0.08;60.19;93957.34;5064652;28;20025;-81
2022/02/08 09:32:31;;;;;;;5.75;2.15;;;;;;;-0.08;59.58;93954.72;5062794;28;20605;-79
2022/02/08 09:34:57;;;;;;;5.13;2.30;;;;;;;-0.14;60.18;93953.09;5064166;28;20029;-77
2022/02/08 09:37:22;;;;;;;5.38;2.15;;;;;;;-0.19;60.17;93947.78;5063816;28;20048;-77
2022/02/08 09:39:51;;;;;;;5.40;2.40;;;;;;;-0.22;60.35;93949.88;5063771;28;20100;-76
2022/02/08 09:42:18;;;;;;;4.35;2.45;;;;;;;-0.11;60.15;93950.78;5063767;28;20228;-80
2022/02/08 09:44:43;;;;;;;5.95;2.80;;;;;;;-0.10;60.02;93954.19;5063689;28;20036;-81
2022/02/08 09:47:16;;;;;;;5.10;2.13;;;;;;;-0.14;59.69;93947.84;5062547;28;20091;-82
2022/02/08 09:49:51;;;;;;;5.28;2.50;;;;;;;-0.07;61.00;93948.47;5062370;28;20066;-86
2022/02/08 09:52:19;;;;;;;6.25;2.85;;;;;;;0.07;60.43;93949.69;5063976;28;20017;-80
2022/02/08 09:54:45;;;;;;;6.47;2.75;;;;;;;0.06;60.43;93953.34;5063650;28;20021;-86
2022/02/08 09:57:14;;;;;;;5.43;2.50;;;;;;;0.08;59.24;93956.53;5063258;28;20021;-83
2022/02/08 09:59:41;;;;;;;5.85;2.70;;;;;;;0.11;60.18;93953.38;5063939;28;20020;-81
2022/02/08 10:02:08;;;;;;;5.32;2.70;;;;;;;0.15;60.56;93957.09;5063603;28;20319;-82
2022/02/08 10:04:33;;;;;;;17.23;3.15;;;;;;;0.17;60.10;93949.78;5063592;28;20024;-81
2022/02/08 10:07:12;;;;;;;13.20;3.17;;;;;;;0.22;59.29;93972.63;5063297;28;20021;-85
2022/02/08 10:09:38;;;;;;;17.02;2.95;;;;;;;0.23;59.37;93968.22;5063075;28;20027;-85
2022/02/08 10:12:04;;;;;;;6.40;2.80;;;;;;;0.27;58.47;93970.09;5063101;28;20053;-86
2022/02/08 10:22:58;;;;;;;9.02;2.88;;;;;;;0.65;55.41;93957.84;5063770;28;20023;-89
2022/02/08 10:28:07;;;;;;;6.53;2.83;;;;;;;0.89;53.00;93970.66;5063416;28;20032;-82
2022/02/08 10:38:43;;;;;;;5.63;2.00;;;;;;;1.08;52.50;93952.69;5062673;28;20044;-80
2022/02/08 10:41:12;;;;;;;5.82;1.92;;;;;;;1.09;52.08;93973.47;5061513;28;20308;-83
2022/02/08 10:43:39;;;;;;;7.18;2.72;;;;;;;1.02;53.55;93983.41;5062623;28;20025;-79
2022/02/08 10:46:04;;;;;;;9.55;2.80;;;;;;;0.92;57.42;93970.97;5061896;28;20092;-83
2022/02/08 10:48:30;;;;;;;4.93;2.70;;;;;;;0.73;57.68;93974.97;5063476;28;20025;-84
2022/02/08 10:51:00;;;;;;;7.53;2.70;;;;;;;0.72;57.40;93973.41;5063691;28;20048;-85
2022/02/08 10:53:36;;;;;;;4.15;2.13;;;;;;;0.64;57.48;93976.50;5062787;28;20021;-83
2022/02/08 10:56:10;;;;;;;6.25;2.25;;;;;;;0.67;56.51;93983.84;5063141;28;20063;-84
2022/02/08 10:58:50;;;;;;;5.93;2.25;;;;;;;0.76;56.39;93977.13;5063083;28;20226;-84
2022/02/08 11:01:23;;;;;;;7.13;2.83;;;;;;;0.78;57.59;93985.53;5062788;28;20037;-84
2022/02/08 11:04:05;;;;;;;8.90;2.78;;;;;;;0.61;58.43;93990.88;5066802;28;20031;-85
2022/02/08 11:06:41;;;;;;;;;;;;;;;0.49;59.42;93992.84;5067765;28;20078;-84
2022/02/08 11:12:19;;;;;;;8.68;2.20;;;;;;;0.74;58.57;93998.34;5066430;28;20060;-84
2022/02/08 11:20:25;;;;;;;7.68;2.42;;;;;;;0.75;59.41;93993.91;5068745;28;20214;-86
2022/02/08 11:23:03;;;;;;;7.28;2.28;;;;;;;0.63;59.13;93991.41;5068389;28;20036;-86
2022/02/08 11:25:39;;;;;;;6.47;2.40;;;;;;;0.75;59.61;94004.38;5069111;28;20089;-87
2022/02/08 11:28:11;;;;;;;5.25;2.35;;;;;;;0.66;59.45;94011.91;5068419;28;20036;-86
2022/02/08 11:30:45;;;;;;;4.72;2.50;;;;;;;0.71;60.35;94001.50;5069506;28;20028;-84
2022/02/08 11:33:34;;;;;;;6.20;2.30;;;;;;;0.53;60.60;94015.72;5066823;28;20025;-75
2022/02/08 11:39:18;;;;;;;4.13;1.90;;;;;;;0.26;61.71;94007.81;5065736;28;20274;-74
2022/02/08 11:44:49;;;;;;;3.45;1.60;;;;;;;0.14;62.12;94010.59;5065499;28;20064;-75
2022/02/08 11:47:21;;;;;;;8.07;1.83;;;;;;;0.13;62.54;94016.84;5065563;28;20036;-75
2022/02/08 11:52:58;;;;;;;5.60;2.25;;;;;;;0.26;62.85;94012.28;5064700;28;20029;-74
2022/02/08 11:56:03;;;;;;;3.88;1.88;;;;;;;0.32;61.89;94009.44;5065464;28;20064;-76
2022/02/08 12:00:44;;;;;;;5.07;2.33;;;;;;;0.36;61.82;94007.16;5065268;28;20127;-77
2022/02/08 12:06:11;;;;;;;3.42;1.80;;;;;;;0.41;61.56;93994.09;5065220;28;20036;-78
2022/02/08 12:08:47;;;;;;;5.32;2.00;;;;;;;0.48;61.07;93989.44;5064006;28;20023;-77
2022/02/08 12:11:44;;;;;;;6.68;2.08;;;;;;;0.59;59.70;93996.38;5065110;28;20051;-77
2022/02/08 12:27:07;;;;;;;6.45;2.28;;;;;;;0.67;59.40;93984.66;5064732;28;20036;-78
2022/02/08 12:35:58;;;;;;;4.45;1.85;;;;;;;1.17;55.07;94001.09;5064586;28;20329;-76
2022/02/08 12:57:30;;;;;;;3.83;1.52;;;;;;;1.67;51.53;94020.09;5064629;28;20013;-77
2022/02/08 13:06:02;;;;;;;13.48;2.17;;;;;;;1.79;51.86;94028.56;5064351;28;20112;-79
2022/02/08 14:08:18;;;;;;;13.57;2.80;;;;;;;2.07;48.36;94093.16;5063120;28;20307;-79
2022/02/08 14:11:06;;;;;;;4.43;1.77;;;;;;;2.01;46.83;94088.91;5061792;28;20263;-78
2022/02/08 14:19:16;;;;;;;5.60;2.25;;;;;;;2.00;51.32;94111.00;5062566;28;20063;-76
2022/02/08 14:21:57;;;;;;;6.18;2.05;;;;;;;1.74;51.96;94112.66;5062632;28;20135;-79
2022/02/08 14:30:09;;;;;;;7.63;2.15;;;;;;;1.41;54.19;94122.38;5062659;28;20163;-78
2022/02/08 14:32:49;;;;;;;7.07;1.90;;;;;;;1.37;53.84;94131.78;5062706;28;20293;-78
2022/02/08 14:49:20;;;;;;;8.82;2.75;;;;;;;1.24;55.42;94143.47;5062375;28;20127;-79
2022/02/08 14:57:44;;;;;;;8.52;1.80;;;;;;;1.20;54.53;94169.44;5070723;28;20037;-78
2022/02/08 15:00:19;;;;;;;14.70;2.47;;;;;;;1.22;54.83;94165.75;5062352;28;20050;-76
2022/02/08 15:10:40;;;;;;;8.13;1.95;;;;;;;1.23;53.50;94178.66;5062128;28;20032;-75
2022/02/08 15:13:06;;;;;;;5.85;2.42;;;;;;;1.21;53.57;94196.47;5061875;28;20032;-77
2022/02/08 15:18:12;;;;;;;10.40;2.53;;;;;;;1.20;54.00;94184.38;5061998;28;20250;-76
2022/02/08 15:20:37;;;;;;;7.60;2.97;;;;;;;1.11;53.42;94189.28;5062054;28;20059;-77
2022/02/08 15:23:07;;;;;;;5.50;1.95;;;;;;;1.07;54.00;94192.66;5062029;28;20146;-79
2022/02/08 15:25:33;;;;;;;9.02;1.88;;;;;;;1.08;53.52;94196.84;5062188;28;20062;-82
2022/02/08 15:28:02;;;;;;;5.05;2.08;;;;;;;1.07;54.37;94211.03;5060934;28;20095;-77
2022/02/08 15:30:33;;;;;;;6.43;2.33;;;;;;;1.09;54.43;94214.19;5061852;28;20025;-80
2022/02/08 15:32:59;;;;;;;7.97;2.28;;;;;;;1.07;53.46;94219.69;5062480;28;20028;-79
2022/02/08 15:35:25;;;;;;;8.10;2.63;;;;;;;1.12;53.40;94230.25;5061941;28;20057;-77
2022/02/08 15:37:53;;;;;;;12.35;2.58;;;;;;;1.14;53.97;94227.38;5061477;28;20028;-76
2022/02/08 15:40:23;;;;;;;10.30;2.40;;;;;;;1.00;53.68;94233.00;5061822;28;20021;-78
2022/02/08 15:42:49;;;;;;;11.10;2.85;;;;;;;1.05;54.08;94241.97;5060640;28;20020;-77
2022/02/08 15:47:51;;;;;;;7.55;2.20;;;;;;;0.93;53.94;94249.97;5062971;28;20115;-79
2022/02/08 15:50:26;;;;;;;6.97;2.47;;;;;;;0.93;54.25;94258.63;5065969;28;20020;-76
2022/02/08 15:55:44;;;;;;;8.40;2.88;;;;;;;0.97;55.53;94264.97;5065557;28;20056;-76
2022/02/08 16:10:02;;;;;;;7.75;2.38;;;;;;;0.99;53.48;94283.91;5065045;28;20238;-79
2022/02/08 16:20:07;;;;;;;16.23;3.08;;;;;;;0.94;53.79;94307.47;5074748;28;20120;-77
2022/02/08 16:49:44;;;;;;;8.45;2.35;;;;;;;0.83;51.99;94347.72;5064388;28;20027;-81
2022/02/08 16:57:56;;;;;;;8.60;2.92;;;;;;;0.89;51.88;94362.50;5062519;28;20051;-84
2022/02/08 17:00:28;;;;;;;9.85;3.00;;;;;;;0.87;51.25;94369.81;5062317;28;20040;-79
2022/02/08 17:02:59;;;;;;;5.72;2.67;;;;;;;0.84;51.66;94375.56;5064318;28;20031;-79
2022/02/08 17:05:24;;;;;;;7.57;3.22;;;;;;;0.84;50.80;94375.56;5064157;28;20230;-81
2022/02/08 17:07:50;;;;;;;11.05;3.13;;;;;;;0.85;51.13;94377.13;5064053;28;20078;-78
2022/02/08 17:10:38;;;;;;;12.40;3.15;;;;;;;0.83;51.30;94384.44;5064098;28;20033;-80
2022/02/08 17:45:53;;;;;;;13.57;1.95;;;;;;;0.69;50.86;94439.09;5063455;28;20043;-73
2022/02/08 17:48:19;;;;;;;8.93;2.08;;;;;;;0.65;50.06;94430.06;5063407;28;20123;-72
2022/02/08 17:50:45;;;;;;;4.40;1.60;;;;;;;0.63;49.81;94437.38;5063297;28;20024;-73
2022/02/08 17:53:10;;;;;;;5.30;1.80;;;;;;;0.60;49.40;94443.91;5063447;28;20037;-77
2022/02/08 17:55:36;;;;;;;5.60;2.30;;;;;;;0.64;50.07;94438.19;5063314;28;20368;-79
2022/02/08 17:58:04;;;;;;;10.57;2.10;;;;;;;0.60;50.81;94441.28;5063025;28;20024;-78
2022/02/08 18:00:32;;;;;;;13.57;2.55;;;;;;;0.62;50.66;94448.94;5062869;28;20159;-79
2022/02/08 18:02:59;;;;;;;6.57;2.10;;;;;;;0.66;50.15;94451.88;5063228;28;20304;-79
2022/02/08 18:05:25;;;;;;;9.57;2.30;;;;;;;0.59;50.22;94449.38;5062888;28;20100;-80
2022/02/08 18:07:51;;;;;;;3.50;1.60;;;;;;;0.62;50.46;94445.50;5063083;28;20021;-79
2022/02/08 18:10:21;;;;;;;6.93;2.28;;;;;;;0.63;50.83;94457.59;5062867;28;20063;-79
2022/02/08 18:12:47;;;;;;;6.07;1.88;;;;;;;0.60;50.80;94449.16;5062669;28;20114;-79
2022/02/08 18:15:14;;;;;;;7.20;2.17;;;;;;;0.67;50.86;94453.47;5062648;28;20025;-79
2022/02/08 18:18:03;;;;;;;3.78;1.55;;;;;;;0.60;50.27;94464.09;5062707;28;20327;-79
2022/02/08 19:21:47;;;;;;;4.50;1.50;;;;;;;0.39;51.12;94531.94;5062010;28;20279;-78
2022/02/08 19:24:18;;;;;;;9.02;2.38;;;;;;;0.43;51.68;94527.03;5065057;28;20033;-76
2022/02/08 19:26:46;;;;;;;9.80;2.92;;;;;;;0.39;52.08;94526.69;5066052;28;20261;-77
2022/02/08 19:29:14;;;;;;;8.57;2.20;;;;;;;0.39;51.94;94536.38;5064531;28;20071;-78
2022/02/08 19:31:40;;;;;;;4.65;1.98;;;;;;;0.39;50.47;94531.13;5066029;28;20017;-78
2022/02/08 19:34:06;;;;;;;4.18;2.05;;;;;;;0.45;51.09;94540.69;5064577;28;20029;-78
2022/02/08 19:36:31;;;;;;;8.38;1.65;;;;;;;0.45;51.24;94545.94;5066091;28;20017;-78
2022/02/08 19:39:02;;;;;;;6.32;2.00;;;;;;;0.46;52.17;94544.13;5065821;28;20071;-78